Time;durP1;ratioP1;P1;durP2;ratioP2;P2;SDS_P1;SDS_P2;PMS_P1;PMS_P2;Temp;Humidity;BMP_temperature;BMP_pressure;BME280_temperature;BME280_humidity;BME280_pressure;Samples;Min_cycle;Max_cycle;Signal;HPM_P1;HPM_P2
2021/12/23 00:03:06;;;;;;;8.02;3.80;;;18.90;64.70;;;;;;10626035;27;20047;-60
2021/12/23 00:08:11;;;;;;;9.55;4.57;;;18.90;64.70;;;;;;10607555;27;20043;-60
2021/12/23 00:13:16;;;;;;;9.15;4.57;;;18.90;64.80;;;;;;10626194;27;20088;-60
2021/12/23 00:23:43;;;;;;;10.45;4.43;;;18.90;64.80;;;;;;10625204;27;20532;-60
2021/12/23 00:28:48;;;;;;;13.68;4.53;;;18.80;64.80;;;;;;10624497;27;20051;-60
2021/12/23 00:33:53;;;;;;;9.57;5.05;;;18.80;65.00;;;;;;10624856;27;20047;-59
2021/12/23 00:38:57;;;;;;;11.73;4.55;;;18.80;65.00;;;;;;10625213;27;20050;-60
2021/12/23 00:44:05;;;;;;;10.90;5.60;;;18.70;65.60;;;;;;10624534;27;20047;-60
2021/12/23 00:49:10;;;;;;;9.07;4.55;;;18.70;65.00;;;;;;10624949;27;20039;-60
2021/12/23 00:54:15;;;;;;;11.93;5.03;;;18.70;65.10;;;;;;10605947;27;20051;-60
2021/12/23 00:59:20;;;;;;;9.95;4.82;;;18.70;65.00;;;;;;10624532;27;20540;-60
2021/12/23 01:04:25;;;;;;;10.07;5.05;;;18.70;65.10;;;;;;10626285;27;20372;-60
2021/12/23 01:09:30;;;;;;;9.48;5.10;;;18.60;65.00;;;;;;10624124;27;20108;-60
2021/12/23 01:14:55;;;;;;;10.98;4.90;;;18.60;65.00;;;;;;10623472;28;20403;-60
2021/12/23 01:20:02;;;;;;;11.82;5.65;;;18.60;65.00;;;;;;10623540;28;20116;-60
2021/12/23 01:25:07;;;;;;;15.88;5.80;;;18.60;65.00;;;;;;10623518;28;20051;-60
2021/12/23 01:30:13;;;;;;;11.00;4.95;;;18.60;65.00;;;;;;10625177;28;20472;-60
2021/12/23 01:35:18;;;;;;;11.05;4.90;;;18.50;65.00;;;;;;10623889;28;20039;-60
2021/12/23 01:40:26;;;;;;;9.75;5.32;;;18.50;65.00;;;;;;10625424;27;20051;-60
2021/12/23 01:45:33;;;;;;;13.98;5.90;;;18.50;65.00;;;;;;10631794;27;20047;-60
2021/12/23 01:50:39;;;;;;;13.45;5.47;;;18.50;65.00;;;;;;10632058;27;20039;-61
2021/12/23 01:55:45;;;;;;;12.93;5.85;;;18.50;65.10;;;;;;10631042;27;20046;-60
2021/12/23 02:00:51;;;;;;;18.75;5.30;;;18.40;65.00;;;;;;10631112;27;20050;-61
2021/12/23 02:05:56;;;;;;;11.43;5.10;;;18.40;65.20;;;;;;10631394;27;20050;-60
2021/12/23 02:11:09;;;;;;;17.15;4.88;;;18.40;65.20;;;;;;10611876;27;20051;-59
2021/12/23 02:16:14;;;;;;;15.10;3.90;;;18.40;65.30;;;;;;10588026;28;20055;-59
2021/12/23 02:21:19;;;;;;;10.38;2.90;;;18.40;65.40;;;;;;10587982;28;20048;-59
2021/12/23 02:26:24;;;;;;;17.55;3.10;;;18.40;65.30;;;;;;10618799;27;20043;-59
2021/12/23 02:31:29;;;;;;;6.85;3.22;;;18.40;65.40;;;;;;10630408;27;20043;-59
2021/12/23 02:36:34;;;;;;;8.27;2.90;;;18.30;65.30;;;;;;10629708;27;20399;-59
2021/12/23 02:41:42;;;;;;;7.38;3.15;;;18.30;65.20;;;;;;10629377;27;20047;-59
2021/12/23 02:46:47;;;;;;;9.98;3.55;;;18.30;65.20;;;;;;10630474;27;20047;-59
2021/12/23 02:51:53;;;;;;;15.15;4.28;;;18.30;65.10;;;;;;10628133;27;20107;-60
2021/12/23 02:56:58;;;;;;;7.22;2.95;;;18.30;65.60;;;;;;10628900;27;20047;-59
2021/12/23 03:02:03;;;;;;;8.30;3.70;;;18.30;66.20;;;;;;10628571;27;20051;-60
2021/12/23 03:07:08;;;;;;;9.85;3.47;;;18.40;66.60;;;;;;10629159;27;20093;-60
2021/12/23 03:12:14;;;;;;;10.00;3.72;;;18.40;66.80;;;;;;10627737;27;20055;-60
2021/12/23 03:17:18;;;;;;;8.55;4.20;;;18.40;66.90;;;;;;10628130;27;20047;-60
2021/12/23 03:22:23;;;;;;;10.27;4.22;;;18.40;66.90;;;;;;10628333;27;20080;-60
2021/12/23 03:27:29;;;;;;;8.07;4.22;;;18.40;66.90;;;;;;10626277;27;20412;-59
2021/12/23 03:32:33;;;;;;;7.15;4.00;;;18.40;66.90;;;;;;10627364;27;20174;-58
2021/12/23 03:37:38;;;;;;;7.35;4.05;;;18.40;66.90;;;;;;10627710;27;20043;-59
2021/12/23 03:42:43;;;;;;;9.98;4.10;;;18.40;66.90;;;;;;10626994;27;20051;-59
2021/12/23 03:47:50;;;;;;;8.82;3.88;;;18.40;66.90;;;;;;10626666;27;20096;-59
2021/12/23 03:52:55;;;;;;;10.10;4.53;;;18.40;66.80;;;;;;10626398;27;20047;-59
2021/12/23 03:58:00;;;;;;;14.20;4.88;;;18.40;66.70;;;;;;10626380;27;20047;-60
2021/12/23 04:03:04;;;;;;;17.13;4.90;;;18.40;66.70;;;;;;10625739;27;20055;-60
2021/12/23 04:08:09;;;;;;;14.85;5.40;;;18.30;66.70;;;;;;10625892;27;20047;-59
2021/12/23 04:13:14;;;;;;;20.17;6.20;;;18.30;66.70;;;;;;10625789;27;20051;-59
2021/12/23 04:18:19;;;;;;;25.20;6.32;;;18.40;66.70;;;;;;10624951;27;20058;-59
2021/12/23 04:23:29;;;;;;;21.55;6.05;;;18.50;66.70;;;;;;10625808;27;20106;-61
2021/12/23 04:28:44;;;;;;;15.98;5.35;;;18.60;66.40;;;;;;10625156;27;20483;-59
2021/12/23 04:33:52;;;;;;;11.80;4.00;;;19.00;65.90;;;;;;10624624;27;20076;-59
2021/12/23 04:38:58;;;;;;;10.25;4.07;;;19.20;65.50;;;;;;10624393;27;20054;-59
2021/12/23 04:44:03;;;;;;;11.73;4.13;;;19.40;65.50;;;;;;10625322;27;20069;-59
2021/12/23 04:49:08;;;;;;;9.63;4.13;;;19.70;65.30;;;;;;10624402;27;20077;-58
2021/12/23 04:54:13;;;;;;;9.75;4.10;;;19.80;64.90;;;;;;10625594;27;20039;-60
2021/12/23 04:59:20;;;;;;;16.98;3.95;;;19.90;65.00;;;;;;10624146;27;20043;-56
2021/12/23 05:04:25;;;;;;;20.65;4.55;;;19.90;65.20;;;;;;10623988;27;20043;-58
2021/12/23 05:09:30;;;;;;;12.05;3.85;;;19.80;65.80;;;;;;10623649;27;20051;-59
2021/12/23 05:14:35;;;;;;;8.40;2.90;;;19.70;66.20;;;;;;10623186;27;20556;-59
2021/12/23 05:19:40;;;;;;;7.85;2.67;;;19.70;66.30;;;;;;10624065;28;20092;-59
2021/12/23 05:24:49;;;;;;;9.93;2.58;;;19.80;66.40;;;;;;10623578;28;20401;-59
2021/12/23 05:29:54;;;;;;;26.23;2.95;;;19.90;66.30;;;;;;10624634;28;20047;-59
2021/12/23 05:34:59;;;;;;;5.47;2.63;;;20.00;65.90;;;;;;10623319;28;20047;-59
2021/12/23 05:40:06;;;;;;;4.35;2.35;;;20.10;65.80;;;;;;10623134;28;20043;-59
2021/12/23 05:45:12;;;;;;;8.35;3.05;;;20.10;65.70;;;;;;10623127;28;20047;-59
2021/12/23 05:50:18;;;;;;;6.07;2.80;;;20.10;65.60;;;;;;10623051;28;20407;-59
2021/12/23 05:55:23;;;;;;;7.13;2.67;;;20.20;65.60;;;;;;10623538;28;20395;-59
2021/12/23 06:00:31;;;;;;;5.90;2.72;;;20.20;65.60;;;;;;10622712;28;20047;-59
2021/12/23 06:05:36;;;;;;;6.50;2.60;;;20.20;65.50;;;;;;10605418;28;20415;-59
2021/12/23 06:10:41;;;;;;;8.98;2.78;;;20.20;65.60;;;;;;10623318;28;20047;-59
2021/12/23 06:15:47;;;;;;;6.55;3.03;;;20.10;65.50;;;;;;10622403;28;20449;-59
2021/12/23 06:20:52;;;;;;;7.55;3.35;;;20.10;65.40;;;;;;10622987;28;20495;-59
2021/12/23 06:25:57;;;;;;;6.22;3.50;;;20.10;65.40;;;;;;10622594;27;20051;-59
2021/12/23 06:31:02;;;;;;;8.25;3.00;;;20.10;65.40;;;;;;10630040;27;20108;-58
2021/12/23 06:36:07;;;;;;;6.45;3.17;;;20.10;65.40;;;;;;10630461;27;20068;-58
2021/12/23 06:41:13;;;;;;;18.38;3.08;;;20.10;65.40;;;;;;10630063;27;20047;-58
2021/12/23 06:46:18;;;;;;;4.85;2.83;;;20.10;65.40;;;;;;10629517;27;20047;-59
2021/12/23 06:51:22;;;;;;;7.55;3.15;;;20.00;65.30;;;;;;10629147;27;20055;-58
2021/12/23 06:56:28;;;;;;;6.25;3.42;;;20.00;65.30;;;;;;10630095;27;20124;-58
2021/12/23 07:01:33;;;;;;;8.13;3.92;;;19.90;65.30;;;;;;10629349;27;20051;-60
2021/12/23 07:06:46;;;;;;;6.82;3.78;;;19.90;65.30;;;;;;10628542;27;20039;-59
2021/12/23 07:11:50;;;;;;;7.45;4.10;;;19.90;65.30;;;;;;10628492;27;20039;-58
2021/12/23 07:16:55;;;;;;;16.63;3.78;;;19.80;65.20;;;;;;10627987;27;20051;-58
2021/12/23 07:22:00;;;;;;;6.53;4.00;;;19.80;65.30;;;;;;10627854;27;20047;-58
2021/12/23 07:27:06;;;;;;;7.28;4.03;;;19.80;65.30;;;;;;10627777;27;20536;-58
2021/12/23 07:32:11;;;;;;;8.48;4.22;;;19.80;65.30;;;;;;10627372;27;20043;-59
2021/12/23 07:37:16;;;;;;;8.60;4.10;;;19.70;65.20;;;;;;10627179;27;20047;-58
2021/12/23 07:42:22;;;;;;;16.42;4.50;;;19.70;65.30;;;;;;10609183;27;20043;-58
2021/12/23 07:47:27;;;;;;;8.80;4.65;;;19.70;65.30;;;;;;10627506;27;20043;-60
2021/12/23 07:52:33;;;;;;;13.95;4.53;;;19.60;65.30;;;;;;10626508;27;20059;-58
2021/12/23 07:57:38;;;;;;;11.32;4.43;;;19.60;65.30;;;;;;10626929;27;20069;-59
2021/12/23 08:02:43;;;;;;;8.73;4.72;;;19.60;65.30;;;;;;10625981;27;20059;-59
2021/12/23 08:07:48;;;;;;;10.90;4.88;;;19.50;65.20;;;;;;10626738;27;20107;-59
2021/12/23 08:12:54;;;;;;;9.80;4.50;;;19.50;65.30;;;;;;10625964;27;20051;-59
2021/12/23 08:17:58;;;;;;;9.68;4.32;;;19.40;65.30;;;;;;10625177;27;20059;-59
2021/12/23 08:23:03;;;;;;;10.93;4.38;;;19.50;65.40;;;;;;10625327;27;20499;-59
2021/12/23 08:28:09;;;;;;;11.52;4.80;;;19.50;65.40;;;;;;10625486;27;20058;-60
2021/12/23 08:33:14;;;;;;;7.97;4.47;;;19.50;65.40;;;;;;10625215;27;20483;-59
2021/12/23 08:38:19;;;;;;;8.63;4.43;;;19.40;65.40;;;;;;10625224;27;20047;-60
2021/12/23 08:43:24;;;;;;;11.40;4.50;;;19.40;65.50;;;;;;10625012;27;20051;-59
2021/12/23 08:48:29;;;;;;;9.55;4.45;;;19.40;65.50;;;;;;10625143;27;20065;-60
2021/12/23 08:53:33;;;;;;;7.53;4.13;;;19.30;65.50;;;;;;10623720;27;20068;-59
2021/12/23 08:58:40;;;;;;;10.45;4.28;;;19.30;65.60;;;;;;10624069;27;20051;-59
2021/12/23 09:03:44;;;;;;;6.90;4.03;;;19.30;65.60;;;;;;10625092;27;20047;-58
2021/12/23 09:08:49;;;;;;;8.32;4.30;;;19.30;65.70;;;;;;10623910;27;20135;-58
2021/12/23 09:13:54;;;;;;;12.00;4.45;;;19.20;65.60;;;;;;10623747;27;20059;-59
2021/12/23 09:18:59;;;;;;;8.40;4.40;;;19.20;65.60;;;;;;10625625;28;20383;-59
2021/12/23 09:24:05;;;;;;;8.50;4.65;;;19.20;65.70;;;;;;10624234;28;20069;-59
2021/12/23 09:34:37;;;;;;;7.95;4.28;;;19.40;65.70;;;;;;10586276;28;20047;-59
2021/12/23 09:39:42;;;;;;;12.10;4.53;;;19.40;66.10;;;;;;10623086;28;20069;-58
2021/12/23 09:44:47;;;;;;;11.88;4.30;;;19.60;65.50;;;;;;10623095;28;20096;-58
2021/12/23 09:49:57;;;;;;;6.93;4.45;;;19.70;65.30;;;;;;10623119;28;20392;-59
2021/12/23 09:55:05;;;;;;;9.00;5.20;;;19.80;65.10;;;;;;10623048;28;20073;-60
2021/12/23 10:00:11;;;;;;;8.30;4.13;;;19.80;65.80;;;;;;10623169;28;20051;-59
2021/12/23 10:05:18;;;;;;;8.30;4.63;;;19.80;65.80;;;;;;10631231;27;20472;-59
2021/12/23 10:10:49;;;;;;;10.03;4.50;;;19.80;65.10;;;;;;10630942;27;20452;-60
2021/12/23 10:32:53;;;;;;;13.90;5.38;;;19.80;65.30;;;;;;10627502;27;20068;-59
2021/12/23 10:38:08;;;;;;;8.70;4.30;;;19.70;65.20;;;;;;10625641;27;20076;-59
2021/12/23 10:43:29;;;;;;;14.00;4.07;;;19.70;65.30;;;;;;10625469;27;20115;-58
2021/12/23 10:48:59;;;;;;;10.25;4.07;;;19.60;65.30;;;;;;10626939;27;20051;-59
2021/12/23 10:54:22;;;;;;;10.05;3.85;;;19.50;65.40;;;;;;10630026;27;20104;-59
2021/12/23 10:59:30;;;;;;;6.65;3.42;;;19.50;65.30;;;;;;10628758;27;20088;-59
2021/12/23 11:05:23;;;;;;;8.73;4.27;;;19.50;65.20;;;;;;10628366;27;20051;-58
2021/12/23 11:37:39;;;;;;;17.88;7.50;;;19.40;64.00;;;;;;10627434;27;20031;-60
2021/12/23 11:48:27;;;;;;;19.13;7.57;;;19.40;64.50;;;;;;10413452;28;20498;-59
2021/12/23 11:53:32;;;;;;;18.75;7.53;;;19.40;63.70;;;;;;10413459;28;20054;-59
2021/12/23 11:58:44;;;;;;;15.10;7.72;;;19.50;63.50;;;;;;10413504;28;20108;-60
2021/12/23 12:04:05;;;;;;;13.18;7.00;;;19.40;63.80;;;;;;10413554;28;20049;-58
2021/12/23 12:09:26;;;;;;;15.88;7.55;;;19.50;63.20;;;;;;10413191;28;20568;-60
2021/12/23 12:14:39;;;;;;;15.20;8.07;;;19.30;63.10;;;;;;10412470;28;20054;-61
2021/12/23 12:19:57;;;;;;;19.55;9.30;;;19.30;63.20;;;;;;10523493;28;20053;-59
2021/12/23 12:25:03;;;;;;;20.37;10.37;;;19.30;63.20;;;;;;10540199;28;20047;-58
2021/12/23 12:30:10;;;;;;;21.38;9.77;;;19.20;63.00;;;;;;10540451;28;20565;-60
2021/12/23 12:35:19;;;;;;;18.92;10.23;;;19.20;62.90;;;;;;10540828;28;20044;-59
2021/12/23 12:40:56;;;;;;;20.85;10.82;;;19.10;62.70;;;;;;10540721;28;20093;-58
2021/12/23 12:46:02;;;;;;;23.00;10.77;;;19.10;62.50;;;;;;10539856;28;20073;-59
2021/12/23 12:51:19;;;;;;;20.88;11.13;;;19.00;62.40;;;;;;10539894;28;20129;-59
2021/12/23 12:56:26;;;;;;;22.05;11.05;;;19.00;62.30;;;;;;10539967;28;20048;-59
2021/12/23 13:01:37;;;;;;;28.08;12.85;;;19.00;62.00;;;;;;10539329;28;20109;-59
2021/12/23 13:06:43;;;;;;;23.52;12.43;;;19.00;61.30;;;;;;10539279;28;20493;-58
2021/12/23 13:12:54;;;;;;;23.73;12.18;;;19.10;60.80;;;;;;10488130;28;20055;-59
2021/12/23 13:18:28;;;;;;;22.73;12.77;;;19.20;60.30;;;;;;10478315;28;20451;-58
2021/12/23 13:23:37;;;;;;;23.42;12.32;;;19.40;60.10;;;;;;10538804;28;20047;-59
2021/12/23 13:28:48;;;;;;;23.65;12.80;;;19.50;59.70;;;;;;10538892;28;20097;-58
2021/12/23 13:34:19;;;;;;;25.80;12.93;;;19.70;59.70;;;;;;10538982;28;20047;-58
2021/12/23 13:39:30;;;;;;;25.90;12.70;;;19.80;59.70;;;;;;10546123;28;20066;-59
2021/12/23 13:44:46;;;;;;;24.08;12.57;;;19.90;59.60;;;;;;10547163;28;20101;-60
2021/12/23 13:49:55;;;;;;;26.10;13.13;;;19.90;59.30;;;;;;10547551;28;20066;-58
2021/12/23 13:55:21;;;;;;;24.80;12.70;;;20.00;59.00;;;;;;10547607;28;20048;-59
2021/12/23 14:00:29;;;;;;;24.17;12.38;;;20.00;58.90;;;;;;10546564;28;20093;-59
2021/12/23 14:05:40;;;;;;;24.15;12.52;;;20.10;58.90;;;;;;10546250;28;20531;-59
2021/12/23 14:10:46;;;;;;;28.30;13.38;;;20.20;58.80;;;;;;10546146;28;20113;-59
2021/12/23 14:15:52;;;;;;;25.35;12.85;;;20.20;58.60;;;;;;10574881;27;20051;-59
2021/12/23 14:26:11;;;;;;;21.02;11.35;;;20.60;58.60;;;;;;10631190;27;20108;-59
2021/12/23 14:31:16;;;;;;;23.92;12.05;;;20.80;58.40;;;;;;10630064;27;20047;-59
2021/12/23 14:36:29;;;;;;;21.95;11.50;;;20.70;58.50;;;;;;10629597;27;20051;-59
2021/12/23 14:41:48;;;;;;;22.42;12.10;;;20.70;58.90;;;;;;10630682;27;20556;-58
2021/12/23 14:47:49;;;;;;;19.73;12.38;;;20.60;58.80;;;;;;10629147;27;20096;-59
2021/12/23 14:52:30;;;;;;;23.52;12.30;;;20.60;58.80;;;;;;10614362;27;20047;-59
2021/12/23 14:57:48;;;;;;;20.40;11.32;;;20.60;58.90;;;;;;10629136;27;20051;-58
2021/12/23 15:03:00;;;;;;;20.23;11.95;;;20.70;58.90;;;;;;10628729;27;20068;-59
2021/12/23 15:08:16;;;;;;;22.70;12.75;;;20.70;58.90;;;;;;10628754;27;20047;-59
2021/12/23 15:13:28;;;;;;;22.15;12.77;;;20.70;59.10;;;;;;10628116;27;20043;-58
2021/12/23 15:23:57;;;;;;;28.30;14.20;;;20.80;59.20;;;;;;10620234;27;20520;-58
2021/12/23 15:29:18;;;;;;;27.03;13.90;;;20.90;59.20;;;;;;10622836;27;20403;-59
2021/12/23 15:34:24;;;;;;;34.08;14.23;;;20.80;59.10;;;;;;10623772;27;20476;-58
2021/12/23 15:39:35;;;;;;;31.20;14.75;;;20.80;59.10;;;;;;10626227;27;20043;-58
2021/12/23 15:44:45;;;;;;;28.25;15.18;;;20.70;59.00;;;;;;10624019;27;20047;-58
2021/12/23 15:49:54;;;;;;;30.25;15.30;;;20.70;59.00;;;;;;10608015;27;20556;-58
2021/12/23 15:54:59;;;;;;;30.42;15.07;;;20.60;59.00;;;;;;10623338;27;20040;-58
2021/12/23 16:00:06;;;;;;;27.55;14.43;;;20.60;59.10;;;;;;10625324;27;20039;-58
2021/12/23 16:10:24;;;;;;;28.63;14.65;;;20.50;59.10;;;;;;10626092;27;20047;-59
2021/12/23 16:15:29;;;;;;;33.38;14.88;;;20.40;59.10;;;;;;10625652;27;20092;-59
2021/12/23 16:20:34;;;;;;;32.70;14.90;;;20.40;59.20;;;;;;10625465;27;20389;-58
2021/12/23 16:25:41;;;;;;;34.17;16.23;;;20.30;59.00;;;;;;10626517;27;20403;-58
2021/12/23 16:30:48;;;;;;;26.10;13.30;;;20.30;59.20;;;;;;10625259;27;20058;-58
2021/12/23 16:35:53;;;;;;;25.00;13.75;;;20.30;59.30;;;;;;10625651;27;20384;-58
2021/12/23 16:40:57;;;;;;;26.25;14.18;;;20.20;59.20;;;;;;10625349;27;20046;-58
2021/12/23 16:46:03;;;;;;;33.72;14.60;;;20.10;59.20;;;;;;10624742;27;20089;-58
2021/12/23 16:51:10;;;;;;;31.63;14.98;;;20.00;59.30;;;;;;10624470;27;20051;-58
2021/12/23 16:56:27;;;;;;;27.42;15.40;;;19.90;59.50;;;;;;10621094;27;20039;-59
2021/12/23 17:01:31;;;;;;;29.63;15.52;;;19.90;59.60;;;;;;10622084;27;20039;-58
2021/12/23 17:06:36;;;;;;;29.35;15.85;;;19.80;59.50;;;;;;10623001;27;20058;-59
2021/12/23 17:11:41;;;;;;;33.10;15.55;;;19.80;59.50;;;;;;10623792;27;20047;-58
2021/12/23 17:16:48;;;;;;;36.72;16.45;;;19.80;59.60;;;;;;10620469;27;20054;-58
2021/12/23 17:21:54;;;;;;;33.55;16.58;;;19.80;59.70;;;;;;10623196;28;20440;-58
2021/12/23 17:27:05;;;;;;;33.40;16.10;;;19.90;59.70;;;;;;10623722;28;20051;-58
2021/12/23 17:32:10;;;;;;;31.40;15.23;;;20.10;59.40;;;;;;10623912;28;20047;-58
2021/12/23 17:37:16;;;;;;;28.00;14.90;;;20.10;59.40;;;;;;10623352;28;20104;-58
2021/12/23 17:42:21;;;;;;;28.58;15.07;;;20.20;59.30;;;;;;10638059;27;20065;-59
2021/12/23 17:47:26;;;;;;;31.10;15.45;;;20.30;59.20;;;;;;10623875;28;20048;-59
2021/12/23 17:52:31;;;;;;;28.58;15.65;;;20.30;59.10;;;;;;10589072;28;20040;-58
2021/12/23 17:57:36;;;;;;;29.95;14.52;;;20.40;59.00;;;;;;10623252;28;20108;-57
2021/12/23 18:02:41;;;;;;;27.92;14.18;;;20.50;58.90;;;;;;10622934;28;20043;-59
2021/12/23 18:07:46;;;;;;;29.25;15.23;;;20.60;58.80;;;;;;10588320;28;20051;-58
2021/12/23 18:12:52;;;;;;;25.38;14.30;;;20.60;58.80;;;;;;10623368;28;20047;-58
2021/12/23 18:17:56;;;;;;;26.73;14.55;;;20.70;58.80;;;;;;10622602;28;20080;-59
2021/12/23 18:23:03;;;;;;;28.05;15.18;;;20.70;58.70;;;;;;10625504;27;20043;-58
2021/12/23 18:28:11;;;;;;;26.23;13.63;;;20.80;58.50;;;;;;10612879;27;20039;-58
2021/12/23 18:33:18;;;;;;;24.90;13.23;;;20.80;58.40;;;;;;10629789;27;20050;-57
2021/12/23 18:38:24;;;;;;;25.55;14.18;;;20.90;58.50;;;;;;10630065;27;20047;-57
2021/12/23 18:43:30;;;;;;;23.17;12.77;;;20.90;58.40;;;;;;10644510;27;20039;-58
2021/12/23 18:48:35;;;;;;;32.92;13.90;;;20.90;58.40;;;;;;10611572;27;20043;-59
2021/12/23 18:53:41;;;;;;;21.35;12.70;;;21.00;58.40;;;;;;10630358;27;20043;-58
2021/12/23 18:58:46;;;;;;;28.30;13.85;;;21.00;58.30;;;;;;10611500;27;20035;-58
2021/12/23 19:08:58;;;;;;;26.65;13.30;;;20.90;58.20;;;;;;10611221;27;20108;-58
2021/12/23 19:14:05;;;;;;;26.13;13.07;;;20.90;58.20;;;;;;10629098;27;20084;-58
2021/12/23 19:19:12;;;;;;;25.65;13.68;;;20.90;58.40;;;;;;10593279;27;20047;-58
2021/12/23 19:24:17;;;;;;;27.48;13.30;;;20.80;58.40;;;;;;10628173;27;20047;-58
2021/12/23 19:29:22;;;;;;;29.27;13.20;;;20.80;58.50;;;;;;10627948;27;20103;-59
2021/12/23 19:34:27;;;;;;;22.70;12.13;;;20.70;59.00;;;;;;10627029;27;20108;-59
2021/12/23 19:39:32;;;;;;;25.30;13.23;;;20.70;59.60;;;;;;10610348;27;20111;-59
2021/12/23 19:44:37;;;;;;;25.65;13.85;;;20.60;58.90;;;;;;10609267;27;20449;-58
2021/12/23 19:49:42;;;;;;;30.70;13.68;;;20.60;58.90;;;;;;10626955;27;20047;-58
2021/12/23 19:54:46;;;;;;;27.20;12.90;;;20.50;58.60;;;;;;10627274;27;20170;-58
2021/12/23 19:59:51;;;;;;;25.30;14.20;;;20.50;58.80;;;;;;10591410;27;20548;-58
2021/12/23 20:04:56;;;;;;;28.23;13.80;;;20.40;59.10;;;;;;10608717;27;20073;-58
2021/12/23 20:10:02;;;;;;;30.35;13.93;;;20.40;59.30;;;;;;10609441;27;20039;-58
2021/12/23 20:15:09;;;;;;;24.65;13.68;;;20.40;59.50;;;;;;10640768;27;20196;-58
2021/12/23 20:20:17;;;;;;;25.25;13.07;;;20.30;59.40;;;;;;10608137;27;20059;-59
2021/12/23 20:25:21;;;;;;;30.75;13.48;;;20.30;59.50;;;;;;10626135;27;20441;-59
2021/12/23 20:30:29;;;;;;;22.70;13.88;;;20.30;59.50;;;;;;10607965;27;20039;-58
2021/12/23 20:35:34;;;;;;;;;;;20.30;59.70;;;;;;10625519;27;20096;-58
2021/12/23 20:40:39;;;;;;;24.33;12.35;;;20.20;59.80;;;;;;10590480;27;19919;-58
2021/12/23 20:45:44;;;;;;;20.52;12.88;;;20.20;59.90;;;;;;10606645;27;20548;-57
2021/12/23 20:50:53;;;;;;;25.20;12.50;;;20.20;60.00;;;;;;10624850;27;20051;-58
2021/12/23 20:56:02;;;;;;;23.85;12.00;;;20.20;60.10;;;;;;10596913;28;20519;-59
2021/12/23 21:01:11;;;;;;;24.83;12.98;;;20.10;60.10;;;;;;10625341;27;20031;-58
2021/12/23 21:06:16;;;;;;;23.77;12.23;;;20.10;60.20;;;;;;10606726;27;20039;-57
2021/12/23 21:11:22;;;;;;;22.92;12.35;;;20.00;60.20;;;;;;10606826;27;20043;-57
2021/12/23 21:16:30;;;;;;;24.58;13.18;;;20.00;60.30;;;;;;10624510;27;20111;-58
2021/12/23 21:21:36;;;;;;;22.35;11.98;;;20.00;60.30;;;;;;10605967;28;20043;-58
2021/12/23 21:26:41;;;;;;;28.30;12.98;;;19.90;60.40;;;;;;10606271;28;20061;-56
2021/12/23 21:31:46;;;;;;;26.95;12.75;;;19.90;60.40;;;;;;10624053;27;20111;-58
2021/12/23 21:36:50;;;;;;;28.00;13.25;;;19.90;60.60;;;;;;10589368;28;20072;-59
2021/12/23 21:41:56;;;;;;;28.85;12.90;;;19.80;60.60;;;;;;10605976;28;20044;-59
2021/12/23 21:47:02;;;;;;;22.90;11.73;;;19.70;60.70;;;;;;10620214;27;20035;-57
2021/12/23 21:52:07;;;;;;;23.15;12.60;;;19.80;60.80;;;;;;10623270;28;20051;-57
2021/12/23 21:57:12;;;;;;;23.65;13.23;;;19.70;60.80;;;;;;10624928;27;20047;-58
2021/12/23 22:02:18;;;;;;;25.25;12.48;;;19.70;60.80;;;;;;10613741;27;20051;-58
2021/12/23 22:07:23;;;;;;;22.30;12.30;;;19.70;60.80;;;;;;10613526;27;20043;-58
2021/12/23 22:12:28;;;;;;;27.38;13.15;;;19.60;60.80;;;;;;10631443;27;20100;-58
2021/12/23 22:17:33;;;;;;;26.05;12.63;;;19.60;60.80;;;;;;10629368;27;20055;-58
2021/12/23 22:22:39;;;;;;;25.15;13.05;;;19.60;60.80;;;;;;10630087;27;20039;-57
2021/12/23 22:27:45;;;;;;;22.42;12.38;;;19.50;60.70;;;;;;10629619;27;20051;-58
2021/12/23 22:32:51;;;;;;;24.92;12.52;;;19.50;60.70;;;;;;10642169;27;20061;-57
2021/12/23 22:37:57;;;;;;;36.13;13.45;;;19.50;60.70;;;;;;10629495;27;20069;-57
2021/12/23 22:43:04;;;;;;;22.30;12.73;;;19.50;60.70;;;;;;10618951;27;20457;-58
2021/12/23 22:48:11;;;;;;;25.55;13.60;;;19.40;60.70;;;;;;10631825;27;20057;-58
2021/12/23 22:53:17;;;;;;;23.42;12.40;;;19.40;60.60;;;;;;10611987;27;20047;-58
2021/12/23 22:58:22;;;;;;;24.23;12.75;;;19.40;60.60;;;;;;10630088;27;20092;-57
2021/12/23 23:03:34;;;;;;;26.35;14.05;;;19.40;60.60;;;;;;10610923;27;20107;-58
2021/12/23 23:08:40;;;;;;;21.70;12.05;;;19.30;60.50;;;;;;10627556;27;20072;-57
2021/12/23 23:13:56;;;;;;;20.60;12.30;;;19.30;60.50;;;;;;10628703;27;20399;-59
2021/12/23 23:19:05;;;;;;;22.58;13.40;;;19.30;60.50;;;;;;10598932;27;20051;-57
2021/12/23 23:24:25;;;;;;;22.55;12.15;;;19.30;60.50;;;;;;10628243;27;20060;-58
2021/12/23 23:40:33;;;;;;;22.45;12.75;;;19.20;60.40;;;;;;10628986;27;20108;-58
2021/12/23 23:45:48;;;;;;;21.63;12.55;;;19.20;60.40;;;;;;10623757;27;20461;-59
2021/12/23 23:50:56;;;;;;;25.35;12.98;;;19.20;60.50;;;;;;10586675;27;20080;-59
2021/12/23 23:56:06;;;;;;;26.08;13.07;;;19.10;60.50;;;;;;10620522;27;20050;-59
